Time;durP1;ratioP1;P1;durP2;ratioP2;P2;SDS_P1;SDS_P2;PMS_P1;PMS_P2;Temp;Humidity;BMP_temperature;BMP_pressure;BME280_temperature;BME280_humidity;BME280_pressure;Samples;Min_cycle;Max_cycle;Signal;HPM_P1;HPM_P2
2022/03/01 00:00:39;;;;;;;29.02;14.73;;;3.10;99.90;;;;;;5092327;28;20072;-76
2022/03/01 00:03:05;;;;;;;25.60;14.88;;;3.10;99.90;;;;;;5093016;28;20052;-76
2022/03/01 00:05:31;;;;;;;25.55;15.73;;;3.10;99.90;;;;;;5093112;28;20028;-75
2022/03/01 00:07:57;;;;;;;25.77;14.98;;;3.10;99.90;;;;;;5092422;28;20476;-75
2022/03/01 00:10:22;;;;;;;25.58;15.38;;;3.10;99.90;;;;;;5093374;28;20031;-75
2022/03/01 00:12:48;;;;;;;21.95;14.40;;;3.10;99.90;;;;;;5093376;28;20356;-76
2022/03/01 00:15:14;;;;;;;26.30;14.85;;;3.20;99.90;;;;;;5093313;28;20020;-76
2022/03/01 00:17:39;;;;;;;22.83;13.25;;;3.20;99.90;;;;;;5091821;28;20032;-75
2022/03/01 00:20:05;;;;;;;25.83;14.75;;;3.30;99.90;;;;;;5092783;28;20030;-76
2022/03/01 00:22:31;;;;;;;28.55;14.10;;;3.30;99.90;;;;;;5094224;28;20028;-76
2022/03/01 00:24:56;;;;;;;27.63;15.80;;;3.30;99.90;;;;;;5094292;28;20024;-76
2022/03/01 00:27:22;;;;;;;29.02;15.48;;;3.30;99.90;;;;;;5092857;28;20065;-76
2022/03/01 00:29:48;;;;;;;22.60;14.93;;;3.30;99.90;;;;;;5091958;28;20020;-75
2022/03/01 00:32:13;;;;;;;24.77;14.77;;;3.30;99.90;;;;;;5092553;28;20027;-75
2022/03/01 00:34:39;;;;;;;22.35;14.48;;;3.30;99.90;;;;;;5092287;28;20038;-75
2022/03/01 00:37:13;;;;;;;25.02;15.05;;;3.30;99.90;;;;;;5091202;28;20055;-76
2022/03/01 00:39:39;;;;;;;21.92;12.98;;;3.40;99.90;;;;;;5093239;28;20034;-77
2022/03/01 00:42:05;;;;;;;18.90;13.90;;;3.40;99.90;;;;;;5092362;28;20099;-75
2022/03/01 00:44:31;;;;;;;20.80;13.65;;;3.40;99.90;;;;;;5092728;28;20044;-75
2022/03/01 00:46:56;;;;;;;21.88;13.75;;;3.40;99.90;;;;;;5092015;28;20529;-76
2022/03/01 00:49:22;;;;;;;21.67;13.70;;;3.40;99.90;;;;;;5091664;28;20028;-75
2022/03/01 00:51:53;;;;;;;24.92;14.25;;;3.40;99.90;;;;;;5092288;28;20036;-75
2022/03/01 00:54:19;;;;;;;26.83;14.77;;;3.40;99.90;;;;;;5092529;28;20090;-75
2022/03/01 00:56:45;;;;;;;24.98;14.13;;;3.40;99.90;;;;;;5091639;28;20059;-76
2022/03/01 00:59:10;;;;;;;31.00;15.88;;;3.40;99.90;;;;;;5092565;28;20115;-76
2022/03/01 01:01:36;;;;;;;28.63;16.30;;;3.50;99.90;;;;;;5092368;28;20028;-76
2022/03/01 01:04:02;;;;;;;24.65;14.05;;;3.40;99.90;;;;;;5091094;28;20040;-76
2022/03/01 01:06:31;;;;;;;25.80;14.52;;;3.50;99.90;;;;;;5092478;28;20040;-76
2022/03/01 01:08:56;;;;;;;22.05;14.55;;;3.50;99.90;;;;;;5092476;28;20170;-76
2022/03/01 01:11:22;;;;;;;23.55;14.93;;;3.50;99.90;;;;;;5091993;28;20027;-76
2022/03/01 01:13:48;;;;;;;27.73;15.93;;;3.50;99.90;;;;;;5093319;28;20024;-76
2022/03/01 01:16:13;;;;;;;24.92;14.68;;;3.50;99.90;;;;;;5091867;28;20125;-76
2022/03/01 01:18:43;;;;;;;24.05;14.55;;;3.50;99.90;;;;;;5092153;28;20020;-75
2022/03/01 01:21:12;;;;;;;31.08;14.70;;;3.50;99.90;;;;;;5093076;28;20024;-75
2022/03/01 01:23:38;;;;;;;25.08;15.30;;;3.50;99.90;;;;;;5092633;28;20107;-75
2022/03/01 01:26:04;;;;;;;24.77;15.35;;;3.50;99.90;;;;;;5092487;28;20019;-77
2022/03/01 01:28:31;;;;;;;24.75;14.32;;;3.50;99.90;;;;;;5092608;28;20038;-76
2022/03/01 01:30:57;;;;;;;31.63;15.23;;;3.40;99.90;;;;;;5092195;28;20479;-75
2022/03/01 01:33:22;;;;;;;22.58;14.98;;;3.40;99.90;;;;;;5092338;28;20035;-76
2022/03/01 01:35:48;;;;;;;24.02;15.13;;;3.40;99.90;;;;;;5092316;28;20080;-76
2022/03/01 01:38:13;;;;;;;23.63;14.75;;;3.30;99.90;;;;;;5086131;28;20067;-76
2022/03/01 01:40:39;;;;;;;26.15;14.77;;;3.40;99.90;;;;;;5071245;28;20468;-76
2022/03/01 01:43:05;;;;;;;25.17;16.25;;;3.30;99.90;;;;;;5071988;28;20024;-76
2022/03/01 01:45:32;;;;;;;29.00;15.48;;;3.30;99.90;;;;;;5071092;28;20024;-77
2022/03/01 01:47:59;;;;;;;26.65;14.98;;;3.30;99.90;;;;;;5072602;28;20036;-76
2022/03/01 01:50:25;;;;;;;23.52;14.93;;;3.40;99.90;;;;;;5075844;28;20021;-76
2022/03/01 01:52:53;;;;;;;26.45;15.85;;;3.40;99.90;;;;;;5075229;28;20051;-76
2022/03/01 01:55:19;;;;;;;30.00;14.63;;;3.30;99.90;;;;;;5075214;28;20470;-75
2022/03/01 01:57:46;;;;;;;25.33;15.10;;;3.40;99.90;;;;;;5075057;28;20480;-75
2022/03/01 02:00:13;;;;;;;25.45;15.32;;;3.30;99.90;;;;;;5075026;28;20039;-75
2022/03/01 02:02:40;;;;;;;32.45;15.98;;;3.40;99.90;;;;;;5075105;28;20048;-76
2022/03/01 02:05:07;;;;;;;30.20;15.57;;;3.30;99.90;;;;;;5075711;28;20067;-76
2022/03/01 02:07:33;;;;;;;22.55;13.82;;;3.40;99.90;;;;;;5074424;28;20513;-76
2022/03/01 02:09:59;;;;;;;23.15;13.95;;;3.30;99.90;;;;;;5075035;28;20024;-75
2022/03/01 02:12:24;;;;;;;22.52;14.38;;;3.30;99.90;;;;;;5075317;28;20058;-77
2022/03/01 02:14:50;;;;;;;21.65;13.60;;;3.40;99.90;;;;;;5074359;28;20111;-76
2022/03/01 02:17:16;;;;;;;27.77;14.98;;;3.30;99.90;;;;;;5076535;28;20024;-76
2022/03/01 02:19:47;;;;;;;23.90;14.05;;;3.40;99.90;;;;;;5075446;28;20048;-76
2022/03/01 02:22:12;;;;;;;29.70;14.80;;;3.40;99.90;;;;;;5074975;28;20032;-76
2022/03/01 02:24:38;;;;;;;24.10;14.93;;;3.40;99.90;;;;;;5074424;28;20036;-75
2022/03/01 02:27:09;;;;;;;25.75;13.98;;;3.40;99.90;;;;;;5074414;28;20064;-76
2022/03/01 02:29:35;;;;;;;19.27;13.63;;;3.40;99.90;;;;;;5074247;28;20027;-74
2022/03/01 02:32:06;;;;;;;26.60;14.95;;;3.40;99.90;;;;;;5074776;28;20029;-75
2022/03/01 02:34:33;;;;;;;21.88;13.80;;;3.40;99.90;;;;;;5075000;28;20021;-75
2022/03/01 02:36:58;;;;;;;26.73;14.57;;;3.40;99.90;;;;;;5074651;28;20099;-75
2022/03/01 02:39:24;;;;;;;23.58;15.23;;;3.40;99.90;;;;;;5075170;28;20541;-75
2022/03/01 02:41:50;;;;;;;23.25;13.68;;;3.40;99.90;;;;;;5074443;28;20074;-76
2022/03/01 02:44:15;;;;;;;22.73;13.38;;;3.40;99.90;;;;;;5075786;28;20380;-76
2022/03/01 02:46:42;;;;;;;21.83;13.68;;;3.40;99.90;;;;;;5075510;28;20507;-76
2022/03/01 02:49:08;;;;;;;24.58;13.57;;;3.40;99.90;;;;;;5074537;28;20073;-76
2022/03/01 02:51:35;;;;;;;23.17;13.20;;;3.40;99.90;;;;;;5075195;28;20111;-75
2022/03/01 02:54:02;;;;;;;19.70;12.65;;;3.50;99.90;;;;;;5074602;28;20044;-76
2022/03/01 02:56:28;;;;;;;23.65;13.13;;;3.40;99.90;;;;;;5073319;28;20044;-76
2022/03/01 02:58:55;;;;;;;21.92;12.75;;;3.50;99.90;;;;;;5074405;28;20021;-76
2022/03/01 03:01:22;;;;;;;20.15;13.10;;;3.50;99.90;;;;;;5074571;28;20032;-76
2022/03/01 03:03:49;;;;;;;21.55;12.65;;;3.40;99.90;;;;;;5072956;28;20052;-76
2022/03/01 03:06:15;;;;;;;20.52;12.30;;;3.40;99.90;;;;;;5073934;28;20040;-75
2022/03/01 03:08:40;;;;;;;23.45;14.07;;;3.40;99.90;;;;;;5073899;28;20345;-76
2022/03/01 03:11:07;;;;;;;22.23;12.20;;;3.40;99.90;;;;;;5073476;28;20024;-76
2022/03/01 03:13:36;;;;;;;22.77;13.15;;;3.50;99.90;;;;;;5074353;28;20033;-76
2022/03/01 03:16:02;;;;;;;25.80;14.10;;;3.40;99.90;;;;;;5073734;28;20036;-77
2022/03/01 03:18:28;;;;;;;28.60;13.18;;;3.40;99.90;;;;;;5073250;28;20384;-76
2022/03/01 03:20:53;;;;;;;22.92;13.68;;;3.40;99.90;;;;;;5073910;28;20028;-75
2022/03/01 03:23:19;;;;;;;22.30;13.90;;;3.40;99.90;;;;;;5073982;28;20464;-76
2022/03/01 03:25:44;;;;;;;20.15;12.50;;;3.40;99.90;;;;;;5073190;28;20038;-75
2022/03/01 03:28:11;;;;;;;21.58;12.88;;;3.40;99.90;;;;;;5074510;28;20506;-76
2022/03/01 03:30:36;;;;;;;21.88;13.57;;;3.40;99.90;;;;;;5074213;28;20031;-76
2022/03/01 03:33:02;;;;;;;24.23;13.82;;;3.30;99.90;;;;;;5073186;28;20021;-76
2022/03/01 03:35:27;;;;;;;23.88;12.85;;;3.30;99.90;;;;;;5074170;28;20029;-76
2022/03/01 03:37:53;;;;;;;21.67;12.65;;;3.30;99.90;;;;;;5073521;28;20028;-75
2022/03/01 03:40:19;;;;;;;20.10;13.02;;;3.40;99.90;;;;;;5074171;28;20376;-75
2022/03/01 03:42:45;;;;;;;23.42;13.02;;;3.30;99.90;;;;;;5073751;28;20060;-76
2022/03/01 03:45:12;;;;;;;27.33;12.80;;;3.30;99.90;;;;;;5073122;28;20028;-75
2022/03/01 03:47:38;;;;;;;20.15;12.63;;;3.30;99.90;;;;;;5073620;28;20040;-75
2022/03/01 03:50:04;;;;;;;22.50;13.77;;;3.30;99.90;;;;;;5073573;28;20024;-77
2022/03/01 03:52:30;;;;;;;19.80;12.63;;;3.40;99.90;;;;;;5072645;28;20039;-76
2022/03/01 03:54:59;;;;;;;19.75;12.18;;;3.40;99.90;;;;;;5073840;28;20024;-76
2022/03/01 03:57:24;;;;;;;19.58;12.45;;;3.50;99.90;;;;;;5073856;28;20029;-75
2022/03/01 03:59:50;;;;;;;19.65;12.00;;;3.50;99.90;;;;;;5072551;28;20110;-75
2022/03/01 04:02:16;;;;;;;21.15;12.80;;;3.50;99.90;;;;;;5073380;28;20028;-75
2022/03/01 04:04:42;;;;;;;20.98;12.82;;;3.60;99.90;;;;;;5073225;28;20033;-76
2022/03/01 04:07:09;;;;;;;22.40;11.93;;;3.60;99.90;;;;;;5072815;28;20111;-74
2022/03/01 04:09:35;;;;;;;25.55;11.93;;;3.60;99.90;;;;;;5073553;28;20027;-75
2022/03/01 04:12:00;;;;;;;17.48;11.43;;;3.70;99.90;;;;;;5073734;28;20107;-76
2022/03/01 04:14:26;;;;;;;31.05;14.00;;;3.70;99.90;;;;;;5072536;28;20052;-75
2022/03/01 04:16:51;;;;;;;20.88;13.50;;;3.70;99.90;;;;;;5072474;28;20548;-74
2022/03/01 04:19:17;;;;;;;19.05;11.35;;;3.70;99.90;;;;;;5072760;28;20464;-75
2022/03/01 04:21:43;;;;;;;19.33;12.18;;;3.70;99.90;;;;;;5071481;28;20389;-75
2022/03/01 04:24:08;;;;;;;18.92;12.15;;;3.80;99.90;;;;;;5072997;28;20044;-75
2022/03/01 04:26:34;;;;;;;23.15;12.38;;;3.80;99.90;;;;;;5072549;28;20435;-76
2022/03/01 04:28:59;;;;;;;25.00;12.93;;;3.80;99.90;;;;;;5070920;28;20120;-75
2022/03/01 04:31:25;;;;;;;22.52;13.55;;;3.80;99.90;;;;;;5073277;28;20028;-75
2022/03/01 04:33:54;;;;;;;26.95;13.38;;;3.70;99.90;;;;;;5072964;28;20051;-75
2022/03/01 04:36:19;;;;;;;21.80;11.85;;;3.70;99.90;;;;;;5071946;28;20548;-75
2022/03/01 04:38:45;;;;;;;22.70;12.40;;;3.70;99.90;;;;;;5072102;28;20127;-76
2022/03/01 04:41:11;;;;;;;29.02;12.98;;;3.70;99.90;;;;;;5071980;28;20028;-74
2022/03/01 04:43:37;;;;;;;19.00;11.60;;;3.70;99.90;;;;;;5071989;28;20036;-77
2022/03/01 04:46:03;;;;;;;18.02;12.23;;;3.80;99.90;;;;;;5072296;28;20032;-76
2022/03/01 04:48:29;;;;;;;21.48;11.70;;;3.80;99.90;;;;;;5071549;28;20031;-76
2022/03/01 04:50:55;;;;;;;21.85;12.30;;;3.80;99.90;;;;;;5072093;28;20029;-74
2022/03/01 04:53:21;;;;;;;24.15;12.48;;;3.70;99.90;;;;;;5072034;28;20032;-75
2022/03/01 04:55:46;;;;;;;23.05;11.93;;;3.80;99.90;;;;;;5071596;28;20039;-75
2022/03/01 04:58:12;;;;;;;18.38;11.40;;;3.80;99.90;;;;;;5072690;28;20028;-75
2022/03/01 05:00:38;;;;;;;20.20;12.23;;;3.80;99.90;;;;;;5072759;28;20017;-76
2022/03/01 05:03:04;;;;;;;18.83;11.40;;;3.80;99.90;;;;;;5071681;28;20610;-76
2022/03/01 05:05:29;;;;;;;20.50;11.43;;;3.80;99.90;;;;;;5072148;28;20051;-75
2022/03/01 05:07:55;;;;;;;17.92;10.80;;;3.80;99.90;;;;;;5072172;28;20060;-75
2022/03/01 05:10:21;;;;;;;21.23;12.25;;;3.80;99.90;;;;;;5071543;28;20427;-76
2022/03/01 05:12:47;;;;;;;16.77;11.73;;;3.80;99.90;;;;;;5071720;28;20508;-76
2022/03/01 05:15:13;;;;;;;18.60;12.68;;;3.80;99.90;;;;;;5071973;28;20055;-75
2022/03/01 05:17:39;;;;;;;17.38;11.10;;;3.80;99.90;;;;;;5070997;28;20107;-75
2022/03/01 05:20:06;;;;;;;19.33;11.85;;;3.80;99.90;;;;;;5072132;28;20029;-75
2022/03/01 05:22:32;;;;;;;18.30;11.65;;;3.80;99.90;;;;;;5072304;28;20056;-75
2022/03/01 05:24:58;;;;;;;21.38;12.18;;;3.80;99.90;;;;;;5075168;28;20056;-76
2022/03/01 05:27:24;;;;;;;18.80;11.45;;;3.80;99.90;;;;;;5076408;28;20040;-75
2022/03/01 05:29:50;;;;;;;16.20;11.27;;;3.80;99.90;;;;;;5075597;28;20024;-75
2022/03/01 05:32:17;;;;;;;16.58;10.95;;;3.80;99.90;;;;;;5074898;28;20093;-75
2022/03/01 05:34:43;;;;;;;18.45;11.68;;;3.80;99.90;;;;;;5075274;28;20021;-76
2022/03/01 05:37:09;;;;;;;20.13;11.73;;;3.80;99.90;;;;;;5075779;28;20036;-75
2022/03/01 05:39:34;;;;;;;21.02;12.00;;;3.80;99.90;;;;;;5074960;28;20408;-75
2022/03/01 05:42:00;;;;;;;20.15;11.70;;;3.90;99.90;;;;;;5075267;28;20077;-75
2022/03/01 05:44:26;;;;;;;20.77;10.50;;;3.90;99.90;;;;;;5075494;28;20021;-75
2022/03/01 05:46:52;;;;;;;16.73;10.65;;;3.90;99.90;;;;;;5074282;28;20038;-75
2022/03/01 05:49:18;;;;;;;16.25;10.57;;;4.00;99.90;;;;;;5075138;28;20049;-74
2022/03/01 05:51:43;;;;;;;17.02;10.80;;;4.00;99.90;;;;;;5074708;28;20052;-76
2022/03/01 05:54:09;;;;;;;18.40;10.88;;;3.90;99.90;;;;;;5075748;28;20027;-75
2022/03/01 05:56:34;;;;;;;15.32;10.43;;;4.00;99.90;;;;;;5075474;28;20020;-75
2022/03/01 05:59:00;;;;;;;17.67;10.35;;;4.00;99.90;;;;;;5074626;28;20017;-76
2022/03/01 06:01:25;;;;;;;20.83;10.55;;;4.00;99.90;;;;;;5075322;28;20070;-76
2022/03/01 06:03:51;;;;;;;22.63;12.38;;;4.00;99.90;;;;;;5075525;28;20040;-74
2022/03/01 06:06:18;;;;;;;16.52;11.02;;;4.00;99.90;;;;;;5074820;28;20036;-76
2022/03/01 06:08:44;;;;;;;18.58;11.32;;;4.00;99.90;;;;;;5075543;28;20142;-75
2022/03/01 06:11:09;;;;;;;17.55;11.45;;;4.00;99.90;;;;;;5075465;28;20058;-74
2022/03/01 06:13:38;;;;;;;15.00;10.27;;;4.00;99.90;;;;;;5074277;28;20052;-74
2022/03/01 06:16:04;;;;;;;14.98;10.60;;;4.00;99.90;;;;;;5075294;28;20484;-75
2022/03/01 06:18:36;;;;;;;15.27;10.98;;;4.00;99.90;;;;;;5075275;28;20054;-73
2022/03/01 06:21:03;;;;;;;16.95;10.55;;;4.00;99.90;;;;;;5073926;28;20032;-76
2022/03/01 06:23:30;;;;;;;17.55;11.10;;;4.00;99.90;;;;;;5086261;28;20028;-75
2022/03/01 06:25:55;;;;;;;18.33;10.02;;;4.00;99.90;;;;;;5094338;28;20036;-74
2022/03/01 06:28:21;;;;;;;19.73;10.68;;;4.00;99.90;;;;;;5091962;28;20090;-74
2022/03/01 06:30:46;;;;;;;19.83;11.18;;;4.00;99.90;;;;;;5092398;28;20028;-74
2022/03/01 06:33:12;;;;;;;14.27;9.85;;;4.10;99.90;;;;;;5093038;28;20035;-75
2022/03/01 06:35:38;;;;;;;14.40;10.80;;;4.10;99.90;;;;;;5091395;28;20388;-75
2022/03/01 06:38:03;;;;;;;23.20;10.38;;;4.10;99.90;;;;;;5093626;28;20028;-75
2022/03/01 06:40:29;;;;;;;22.92;11.30;;;4.10;99.90;;;;;;5093420;28;20071;-74
2022/03/01 06:42:56;;;;;;;22.42;12.00;;;4.10;99.90;;;;;;5092809;28;20024;-74
2022/03/01 06:45:21;;;;;;;18.05;10.93;;;4.20;99.90;;;;;;5090762;28;20023;-74
2022/03/01 06:47:47;;;;;;;17.67;10.57;;;4.20;99.90;;;;;;5093087;28;20040;-74
2022/03/01 06:50:13;;;;;;;15.73;10.07;;;4.20;99.90;;;;;;5093679;28;20023;-75
2022/03/01 06:52:39;;;;;;;18.23;10.38;;;4.20;99.90;;;;;;5093512;28;20066;-75
2022/03/01 06:55:06;;;;;;;20.08;11.48;;;4.20;99.90;;;;;;5092294;28;20020;-74
2022/03/01 06:57:32;;;;;;;23.50;12.27;;;4.20;99.90;;;;;;5092586;28;20050;-74
2022/03/01 06:59:58;;;;;;;18.25;10.35;;;4.20;99.90;;;;;;5089857;28;20460;-74
2022/03/01 07:02:27;;;;;;;21.50;11.43;;;4.30;99.90;;;;;;5076347;28;20055;-74
2022/03/01 07:04:54;;;;;;;17.50;10.82;;;4.30;99.90;;;;;;5072893;28;20421;-74
2022/03/01 07:07:21;;;;;;;19.77;11.55;;;4.30;99.90;;;;;;5072847;28;20067;-76
2022/03/01 07:09:47;;;;;;;17.35;10.95;;;4.30;99.90;;;;;;5071621;28;20029;-74
2022/03/01 07:12:12;;;;;;;17.23;10.30;;;4.30;99.90;;;;;;5072822;28;20043;-74
2022/03/01 07:14:38;;;;;;;15.65;10.25;;;4.30;99.90;;;;;;5078204;28;20069;-74
2022/03/01 07:17:03;;;;;;;16.30;10.38;;;4.30;99.90;;;;;;5072461;28;20020;-75
2022/03/01 07:19:29;;;;;;;14.73;10.20;;;4.40;99.90;;;;;;5076665;28;20099;-75
2022/03/01 07:21:54;;;;;;;20.15;11.68;;;4.40;99.90;;;;;;5075361;28;20028;-75
2022/03/01 07:24:20;;;;;;;19.70;10.50;;;4.40;99.90;;;;;;5077303;28;20068;-75
2022/03/01 07:26:46;;;;;;;21.05;10.57;;;4.40;99.90;;;;;;5075149;28;20055;-74
2022/03/01 07:29:11;;;;;;;18.90;10.68;;;4.40;99.90;;;;;;5072233;28;20024;-75
2022/03/01 07:31:37;;;;;;;16.55;10.90;;;4.40;99.90;;;;;;5071418;28;20040;-75
2022/03/01 07:34:03;;;;;;;16.83;10.65;;;4.60;99.90;;;;;;5072025;28;20024;-74
2022/03/01 07:36:28;;;;;;;15.73;9.90;;;4.50;99.90;;;;;;5075354;28;20020;-75
2022/03/01 07:38:54;;;;;;;16.50;10.10;;;5.40;99.90;;;;;;5071061;28;20540;-74
2022/03/01 07:41:20;;;;;;;16.60;9.65;;;4.60;99.90;;;;;;5072328;28;20052;-74
2022/03/01 07:43:45;;;;;;;20.35;10.65;;;4.60;99.90;;;;;;5071803;28;20107;-74
2022/03/01 07:46:13;;;;;;;19.65;10.95;;;4.60;99.90;;;;;;5071475;28;20381;-74
2022/03/01 07:48:43;;;;;;;18.00;11.35;;;4.70;99.90;;;;;;5071726;28;20037;-75
2022/03/01 07:51:09;;;;;;;;;;;4.80;99.90;;;;;;5071780;28;20104;-75
2022/03/01 07:53:37;;;;;;;19.10;9.70;;;4.80;99.90;;;;;;5072159;28;19991;-75
2022/03/01 07:56:03;;;;;;;15.20;10.70;;;4.90;99.90;;;;;;5071497;28;20431;-74
2022/03/01 07:58:29;;;;;;;18.58;10.27;;;4.90;99.90;;;;;;5071355;28;20079;-74
2022/03/01 08:00:55;;;;;;;13.30;10.20;;;5.00;99.90;;;;;;5075487;28;20468;-74
2022/03/01 08:03:21;;;;;;;19.27;11.10;;;5.10;99.90;;;;;;5072740;28;20032;-74
2022/03/01 08:05:46;;;;;;;19.27;10.10;;;5.10;99.90;;;;;;5071635;28;20098;-74
2022/03/01 08:08:13;;;;;;;15.98;10.75;;;5.20;99.90;;;;;;5071775;28;20067;-75
2022/03/01 08:10:39;;;;;;;15.07;10.77;;;5.20;99.90;;;;;;5074711;28;20123;-75
2022/03/01 08:13:05;;;;;;;14.65;10.27;;;5.30;99.90;;;;;;5071340;28;20103;-75
2022/03/01 08:15:30;;;;;;;17.10;9.82;;;5.30;99.90;;;;;;5074365;28;20053;-75
2022/03/01 08:17:58;;;;;;;18.60;11.02;;;5.40;99.90;;;;;;5092425;28;20024;-74
2022/03/01 08:20:24;;;;;;;14.40;10.48;;;5.40;99.90;;;;;;5089073;28;20021;-75
2022/03/01 08:22:50;;;;;;;16.23;11.38;;;5.50;99.90;;;;;;5087516;28;20070;-75
2022/03/01 08:25:16;;;;;;;18.55;10.68;;;5.60;99.90;;;;;;5073222;28;20423;-76
2022/03/01 08:27:42;;;;;;;18.08;11.05;;;5.70;99.90;;;;;;5071814;28;20029;-75
2022/03/01 08:30:11;;;;;;;17.67;10.95;;;5.70;99.90;;;;;;5072836;28;20170;-75
2022/03/01 08:32:36;;;;;;;19.17;10.95;;;5.80;99.90;;;;;;5073212;28;20017;-75
2022/03/01 08:35:02;;;;;;;19.23;11.73;;;5.80;99.90;;;;;;5072806;28;20039;-76
2022/03/01 08:37:28;;;;;;;15.95;10.70;;;5.80;99.90;;;;;;5073577;28;20020;-75
2022/03/01 08:39:54;;;;;;;19.30;11.30;;;5.70;99.90;;;;;;5072969;28;20085;-76
2022/03/01 08:42:20;;;;;;;18.08;11.35;;;5.70;99.90;;;;;;5072488;28;20020;-73
2022/03/01 08:44:48;;;;;;;18.83;12.10;;;5.80;99.90;;;;;;5073192;28;20500;-76
2022/03/01 08:47:14;;;;;;;22.52;11.50;;;5.70;99.90;;;;;;5074011;28;20483;-76
2022/03/01 08:49:39;;;;;;;22.58;12.10;;;5.80;99.90;;;;;;5072789;28;20021;-73
2022/03/01 08:52:05;;;;;;;15.75;10.80;;;5.70;99.90;;;;;;5074037;28;20029;-76
2022/03/01 08:54:34;;;;;;;16.15;11.13;;;5.80;99.90;;;;;;5073396;28;20036;-80
2022/03/01 08:57:03;;;;;;;20.52;11.70;;;5.70;99.90;;;;;;5073191;28;20051;-80
2022/03/01 08:59:31;;;;;;;15.80;10.98;;;5.80;99.90;;;;;;5077069;28;20102;-80
2022/03/01 09:01:58;;;;;;;21.50;10.85;;;5.80;99.90;;;;;;5076764;28;20227;-80
2022/03/01 09:04:24;;;;;;;19.63;11.05;;;5.90;99.90;;;;;;5077667;28;20072;-80
2022/03/01 09:06:49;;;;;;;17.70;11.05;;;5.90;99.90;;;;;;5079752;28;20433;-80
2022/03/01 09:09:15;;;;;;;21.23;11.05;;;6.00;99.90;;;;;;5077423;28;20029;-79
2022/03/01 09:11:47;;;;;;;21.88;12.55;;;6.00;99.90;;;;;;5078379;28;20024;-80
2022/03/01 09:14:12;;;;;;;18.92;11.63;;;6.10;99.90;;;;;;5078560;28;20067;-80
2022/03/01 09:16:38;;;;;;;19.00;11.35;;;6.10;99.90;;;;;;5077428;28;20372;-80
2022/03/01 09:19:05;;;;;;;17.92;11.13;;;6.00;99.90;;;;;;5061215;28;20028;-82
2022/03/01 09:21:31;;;;;;;22.65;12.25;;;6.10;99.90;;;;;;5079304;28;20033;-80
2022/03/01 09:23:56;;;;;;;15.77;10.95;;;6.10;99.90;;;;;;5078385;28;20036;-81
2022/03/01 09:26:22;;;;;;;17.05;11.57;;;6.20;99.90;;;;;;5080373;28;20472;-81
2022/03/01 09:28:48;;;;;;;27.70;13.45;;;6.20;99.90;;;;;;5079842;28;20056;-79
2022/03/01 09:31:13;;;;;;;17.45;11.55;;;6.20;99.90;;;;;;5078040;28;20496;-79
2022/03/01 09:33:42;;;;;;;20.48;11.40;;;6.20;99.90;;;;;;5077838;28;20029;-77
2022/03/01 09:36:12;;;;;;;21.17;11.63;;;6.20;99.90;;;;;;5081216;28;20051;-80
2022/03/01 09:38:38;;;;;;;21.25;11.40;;;6.30;99.90;;;;;;5083144;28;20035;-81
2022/03/01 09:41:04;;;;;;;18.17;12.10;;;6.20;99.90;;;;;;5082100;28;20476;-81
2022/03/01 09:43:36;;;;;;;20.25;12.40;;;6.30;99.90;;;;;;5080355;28;20084;-83
2022/03/01 09:46:02;;;;;;;21.42;10.95;;;6.30;99.90;;;;;;5079242;28;20384;-83
2022/03/01 09:48:28;;;;;;;16.90;10.98;;;6.30;99.90;;;;;;5097942;28;20080;-86
2022/03/01 09:50:55;;;;;;;17.27;12.70;;;6.30;99.90;;;;;;5098627;28;20460;-84
2022/03/01 09:53:20;;;;;;;14.63;11.15;;;6.40;99.90;;;;;;5100092;28;20024;-84
2022/03/01 09:55:46;;;;;;;19.13;11.10;;;6.50;99.90;;;;;;5099323;28;20046;-81
2022/03/01 09:58:14;;;;;;;18.67;12.15;;;6.60;99.90;;;;;;5099485;28;20476;-82
2022/03/01 10:00:45;;;;;;;17.83;11.68;;;6.60;99.90;;;;;;5098652;28;20264;-82
2022/03/01 10:03:15;;;;;;;20.75;12.23;;;6.70;99.90;;;;;;5098642;28;20125;-83
2022/03/01 10:05:41;;;;;;;19.52;11.70;;;6.70;99.90;;;;;;5098731;28;20055;-87
2022/03/01 10:08:08;;;;;;;18.45;11.82;;;6.60;99.90;;;;;;5099207;28;20032;-84
2022/03/01 10:10:39;;;;;;;24.38;12.95;;;6.60;99.90;;;;;;5098633;28;20043;-84
2022/03/01 10:13:05;;;;;;;20.30;12.63;;;6.60;99.90;;;;;;5094344;28;20027;-83
2022/03/01 10:15:32;;;;;;;19.58;11.85;;;6.60;99.90;;;;;;5086790;28;20112;-84
2022/03/01 10:17:59;;;;;;;20.48;11.98;;;6.60;99.90;;;;;;5100436;28;20042;-85
2022/03/01 10:20:24;;;;;;;17.55;12.15;;;6.70;99.90;;;;;;5100254;28;20039;-84
2022/03/01 10:22:52;;;;;;;18.27;12.57;;;6.70;99.90;;;;;;5099496;28;20490;-85
2022/03/01 10:25:20;;;;;;;18.02;12.50;;;6.70;99.90;;;;;;5100973;28;20031;-85
2022/03/01 10:27:47;;;;;;;20.55;12.82;;;6.80;99.90;;;;;;5100328;28;20042;-85
2022/03/01 10:30:23;;;;;;;16.45;11.77;;;6.90;99.90;;;;;;5099625;28;20046;-83
2022/03/01 10:32:49;;;;;;;18.52;11.93;;;6.90;99.90;;;;;;5098604;28;20020;-83
2022/03/01 10:35:15;;;;;;;24.17;13.10;;;6.90;99.90;;;;;;5097847;28;20039;-85
2022/03/01 10:37:40;;;;;;;21.50;12.63;;;6.90;99.90;;;;;;5097790;28;20021;-82
2022/03/01 10:40:17;;;;;;;20.40;13.05;;;7.00;99.90;;;;;;5097380;28;20460;-82
2022/03/01 10:42:43;;;;;;;24.48;15.00;;;7.00;99.90;;;;;;5097092;28;20032;-82
2022/03/01 10:45:10;;;;;;;20.77;13.32;;;7.10;99.90;;;;;;5092967;28;20030;-81
2022/03/01 10:47:37;;;;;;;18.42;12.75;;;7.00;99.90;;;;;;5093199;28;20472;-81
2022/03/01 10:50:07;;;;;;;20.08;13.05;;;7.00;99.90;;;;;;5099291;28;20032;-82
2022/03/01 10:52:34;;;;;;;15.95;11.65;;;7.00;99.90;;;;;;5088689;28;20025;-81
2022/03/01 10:55:01;;;;;;;18.25;12.40;;;7.10;99.90;;;;;;5087224;28;20486;-81
2022/03/01 10:57:26;;;;;;;19.42;13.13;;;7.10;99.90;;;;;;5091656;28;20020;-81
2022/03/01 10:59:52;;;;;;;20.50;13.13;;;7.20;99.90;;;;;;5077311;28;20052;-82
2022/03/01 11:02:19;;;;;;;16.98;12.57;;;7.20;99.90;;;;;;5087789;28;20020;-81
2022/03/01 11:04:46;;;;;;;20.48;13.60;;;7.20;99.90;;;;;;5089747;28;20028;-80
2022/03/01 11:07:13;;;;;;;20.10;13.77;;;7.20;99.90;;;;;;5089211;28;20031;-79
2022/03/01 11:09:39;;;;;;;21.42;13.32;;;7.20;99.90;;;;;;5087815;28;20052;-81
2022/03/01 11:12:07;;;;;;;19.98;13.77;;;7.30;99.90;;;;;;5087429;28;20453;-80
2022/03/01 11:14:51;;;;;;;20.33;14.38;;;7.30;99.90;;;;;;5089599;28;20028;-80
2022/03/01 11:17:48;;;;;;;23.50;14.80;;;7.30;99.90;;;;;;5091462;28;20024;-80
2022/03/01 11:20:21;;;;;;;21.73;12.90;;;7.40;99.90;;;;;;5093411;28;20089;-79
2022/03/01 11:22:53;;;;;;;22.52;14.43;;;7.40;99.90;;;;;;5098566;28;20392;-80
2022/03/01 11:25:27;;;;;;;21.60;14.30;;;7.50;99.90;;;;;;5097378;28;20484;-78
2022/03/01 11:28:00;;;;;;;21.77;14.65;;;7.50;99.90;;;;;;5096519;28;20043;-79
2022/03/01 11:30:28;;;;;;;22.88;15.00;;;7.60;99.90;;;;;;5095034;28;20024;-80
2022/03/01 11:32:56;;;;;;;22.20;14.27;;;7.60;99.90;;;;;;5095243;28;20051;-80
2022/03/01 11:35:24;;;;;;;22.20;14.45;;;7.70;99.90;;;;;;5095290;28;20016;-79
2022/03/01 11:38:14;;;;;;;29.45;15.85;;;7.80;99.90;;;;;;5095172;28;20035;-80
2022/03/01 11:40:46;;;;;;;26.75;14.52;;;7.90;99.90;;;;;;5094953;28;20028;-79
2022/03/01 11:43:22;;;;;;;22.98;14.50;;;8.10;99.90;;;;;;5094376;28;20024;-79
2022/03/01 11:45:51;;;;;;;23.33;15.05;;;8.10;99.90;;;;;;5094306;28;20031;-80
2022/03/01 11:48:19;;;;;;;23.90;14.20;;;8.20;99.90;;;;;;5087443;28;20046;-77
2022/03/01 11:50:47;;;;;;;23.95;14.65;;;8.20;99.90;;;;;;5093205;28;20501;-77
2022/03/01 11:53:17;;;;;;;20.52;13.55;;;8.20;99.90;;;;;;5094162;28;20068;-76
2022/03/01 11:55:55;;;;;;;27.02;15.15;;;8.30;99.90;;;;;;5090118;28;20020;-77
2022/03/01 11:58:22;;;;;;;23.60;14.05;;;8.40;99.90;;;;;;5092314;28;20031;-78
2022/03/01 12:00:49;;;;;;;24.38;14.95;;;8.50;99.90;;;;;;5091117;28;20059;-76
2022/03/01 12:03:21;;;;;;;20.95;14.88;;;8.60;99.90;;;;;;5092644;28;20036;-79
2022/03/01 12:05:49;;;;;;;21.27;14.60;;;8.70;99.90;;;;;;5092465;28;20032;-74
2022/03/01 12:08:18;;;;;;;20.52;14.35;;;8.70;99.90;;;;;;5092224;28;20046;-76
2022/03/01 12:10:57;;;;;;;;;;;8.80;99.90;;;;;;5090000;28;20130;-78
2022/03/01 12:13:37;;;;;;;21.60;14.18;;;8.80;99.90;;;;;;5087174;28;19958;-77
2022/03/01 12:16:03;;;;;;;23.20;14.57;;;8.80;99.90;;;;;;5093319;28;20028;-77
2022/03/01 12:18:32;;;;;;;26.55;15.65;;;8.90;99.90;;;;;;5092426;28;20024;-78
2022/03/01 12:21:09;;;;;;;23.23;15.13;;;9.00;99.90;;;;;;5094761;28;20020;-74
2022/03/01 12:23:42;;;;;;;22.75;14.75;;;9.10;99.90;;;;;;5095381;28;20027;-76
2022/03/01 12:26:13;;;;;;;20.60;14.80;;;9.10;99.90;;;;;;5093734;28;20043;-76
2022/03/01 12:28:44;;;;;;;25.95;15.65;;;9.10;99.90;;;;;;5094526;28;20063;-77
2022/03/01 12:31:26;;;;;;;24.52;15.10;;;9.10;99.90;;;;;;5088663;28;20025;-76
2022/03/01 12:33:58;;;;;;;22.40;15.15;;;9.20;99.90;;;;;;5089454;28;20028;-77
2022/03/01 12:36:29;;;;;;;18.55;14.60;;;9.30;99.90;;;;;;5083255;28;20107;-77